Maples, Missouri
Current Conditions -  °F | °C
As of 6:58 PM on Monday 20 Oct 2014 (Local Time) from KTBN Reporting Station
Clear Clear  
Wind Chill: 18°   Ceiling: Unl
Heat Index: 18°   Visibility: 10mi
Dew Point: 11°   Wind: 6mph
Humidity: 65%   Direction: 340°NNW
Pressure: 30.01"   Gusts: NA
Location:  37.5023°N, 91.4546°W
Report Text: KTBN 202358Z AUTO 34005KT 10SM CLR 18/11 A3001 RMK AO2 SLP161 T01760109 10240 20176 53007
Loading
Personal Weather Stations






























Interactive Weather Map
Tropical Storm Tracking
New forecast layout! Learn more

10-Day Weather Forecast

Advertisements
Track Severe Weather on mobile